createdAt,value
2018-05-21T00:00:53.601Z,101702
2018-05-21T00:03:22.510Z,101705
2018-05-21T00:05:50.651Z,101708
2018-05-21T00:08:19.591Z,101705
2018-05-21T00:10:48.565Z,101702
2018-05-21T00:13:16.690Z,101693
2018-05-21T00:15:44.833Z,101693
2018-05-21T00:18:13.088Z,101688
2018-05-21T00:20:41.219Z,101695
2018-05-21T00:23:11.044Z,101693
2018-05-21T00:25:39.935Z,101689
2018-05-21T00:28:08.888Z,101685
2018-05-21T00:30:37.964Z,101693
2018-05-21T00:33:07.059Z,101689
2018-05-21T00:35:35.201Z,101691
2018-05-21T00:38:04.462Z,101684
2018-05-21T00:40:33.520Z,101684
2018-05-21T00:43:01.646Z,101680
2018-05-21T00:45:30.615Z,101679
2018-05-21T00:47:58.765Z,101684
2018-05-21T00:50:26.890Z,101678
2018-05-21T00:52:55.786Z,101682
2018-05-21T00:55:37.433Z,101676
2018-05-21T00:58:05.589Z,101682
2018-05-21T01:00:33.705Z,101683
2018-05-21T01:03:02.608Z,101679
2018-05-21T01:05:31.498Z,101679
2018-05-21T01:07:59.625Z,101674
2018-05-21T01:10:27.744Z,101672
2018-05-21T01:12:55.870Z,101677
2018-05-21T01:15:24.004Z,101673
2018-05-21T01:17:52.182Z,101680
2018-05-21T01:20:20.319Z,101668
2018-05-21T01:22:49.206Z,101668
2018-05-21T01:25:17.339Z,101661
2018-05-21T01:27:45.478Z,101669
2018-05-21T01:30:13.624Z,101656
2018-05-21T01:32:42.607Z,101661
2018-05-21T01:35:10.750Z,101668
2018-05-21T01:37:39.558Z,101659
2018-05-21T01:40:07.728Z,101656
2018-05-21T01:42:35.840Z,101662
2018-05-21T01:45:04.172Z,101655
2018-05-21T01:47:32.302Z,101657
2018-05-21T01:50:00.456Z,101664
2018-05-21T01:52:28.583Z,101666
2018-05-21T01:54:56.720Z,101660
2018-05-21T01:57:24.845Z,101660
2018-05-21T01:59:53.037Z,101663
2018-05-21T02:02:21.940Z,101662
2018-05-21T02:04:50.114Z,101654
2018-05-21T02:07:18.276Z,101661
2018-05-21T02:09:47.188Z,101658
2018-05-21T02:12:15.302Z,101652
2018-05-21T02:14:43.438Z,101650
2018-05-21T02:17:11.553Z,101650
2018-05-21T02:19:39.686Z,101648
2018-05-21T02:22:07.814Z,101655
2018-05-21T02:24:36.730Z,101650
2018-05-21T02:27:04.927Z,101658
2018-05-21T02:29:33.014Z,101654
2018-05-21T02:32:01.154Z,101653
2018-05-21T02:34:29.298Z,101657
2018-05-21T02:36:58.197Z,101662
2018-05-21T02:39:27.178Z,101657
2018-05-21T02:41:56.106Z,101660
2018-05-21T02:44:24.574Z,101652
2018-05-21T02:46:52.716Z,101655
2018-05-21T02:49:21.614Z,101653
2018-05-21T02:51:51.522Z,101657
2018-05-21T02:54:20.422Z,101659
2018-05-21T02:56:49.311Z,101652
2018-05-21T02:59:17.440Z,101654
2018-05-21T03:01:45.558Z,101652
2018-05-21T03:04:14.477Z,101646
2018-05-21T03:06:42.633Z,101647
2018-05-21T03:09:10.841Z,101644
2018-05-21T03:11:38.973Z,101640
2018-05-21T03:14:07.121Z,101641
2018-05-21T03:16:36.011Z,101634
2018-05-21T03:19:04.195Z,101635
2018-05-21T03:21:32.381Z,101635
2018-05-21T03:24:00.507Z,101629
2018-05-21T03:26:28.654Z,101632
2018-05-21T03:28:56.809Z,101625
2018-05-21T03:31:24.946Z,101629
2018-05-21T03:33:53.064Z,101630
2018-05-21T03:36:21.195Z,101627
2018-05-21T03:38:50.086Z,101624
2018-05-21T03:41:19.005Z,101621
2018-05-21T03:43:47.138Z,101630
2018-05-21T03:46:15.286Z,101637
2018-05-21T03:48:43.426Z,101635
2018-05-21T03:51:11.631Z,101638
2018-05-21T03:53:39.751Z,101632
2018-05-21T03:56:07.927Z,101631
2018-05-21T03:58:53.846Z,101638
2018-05-21T04:01:39.765Z,101625
2018-05-21T04:04:08.017Z,101622
2018-05-21T04:06:36.185Z,101622
2018-05-21T04:09:04.321Z,101626
2018-05-21T04:11:33.215Z,101617
2018-05-21T04:14:01.357Z,101620
2018-05-21T04:16:29.495Z,101621
2018-05-21T04:18:57.660Z,101625
2018-05-21T04:21:25.802Z,101620
2018-05-21T04:23:54.689Z,101620
2018-05-21T04:26:22.849Z,101627
2018-05-21T04:28:51.746Z,101637
2018-05-21T04:31:19.872Z,101634
2018-05-21T04:33:48.059Z,101634
2018-05-21T04:36:16.198Z,101628
2018-05-21T04:38:44.446Z,101621
2018-05-21T04:41:13.365Z,101633
2018-05-21T04:43:41.487Z,101632
2018-05-21T04:46:09.668Z,101634
2018-05-21T04:48:38.561Z,101634
2018-05-21T04:51:07.458Z,101632
2018-05-21T04:53:36.374Z,101629
2018-05-21T04:56:04.503Z,101636
2018-05-21T04:58:32.620Z,101626
2018-05-21T05:01:00.796Z,101628
2018-05-21T05:03:28.926Z,101627
2018-05-21T05:05:57.846Z,101627
2018-05-21T05:08:25.978Z,101626
2018-05-21T05:10:54.115Z,101627
2018-05-21T05:13:22.265Z,101624
2018-05-21T05:15:50.481Z,101631
2018-05-21T05:18:18.633Z,101622
2018-05-21T05:20:46.768Z,101635
2018-05-21T05:23:14.893Z,101624
2018-05-21T05:25:43.017Z,101627
2018-05-21T05:28:11.141Z,101622
2018-05-21T05:30:39.281Z,101618
2018-05-21T05:33:07.402Z,101616
2018-05-21T05:35:35.530Z,101615
2018-05-21T05:38:03.665Z,101618
2018-05-21T05:40:32.570Z,101606
2018-05-21T05:43:00.693Z,101606
2018-05-21T05:45:28.885Z,101605
2018-05-21T05:47:57.158Z,101608
2018-05-21T05:50:25.317Z,101600
2018-05-21T05:52:53.525Z,101598
2018-05-21T05:55:21.654Z,101603
2018-05-21T05:57:49.806Z,101596
2018-05-21T06:00:17.926Z,101606
2018-05-21T06:02:46.826Z,101604
2018-05-21T06:05:15.718Z,101598
2018-05-21T06:07:44.602Z,101588
2018-05-21T06:10:12.743Z,101591
2018-05-21T06:12:40.865Z,101593
2018-05-21T06:15:08.992Z,101594
2018-05-21T06:17:37.110Z,101597
2018-05-21T06:20:05.266Z,101605
2018-05-21T06:22:34.146Z,101595
2018-05-21T06:25:03.156Z,101589
2018-05-21T06:27:31.321Z,101588
2018-05-21T06:30:00.340Z,101596
2018-05-21T06:32:28.465Z,101589
2018-05-21T06:34:56.594Z,101591
2018-05-21T06:37:24.721Z,101593
2018-05-21T06:39:53.617Z,101585
2018-05-21T06:42:22.560Z,101590
2018-05-21T06:44:50.717Z,101592
2018-05-21T06:47:18.838Z,101587
2018-05-21T06:49:46.990Z,101590
2018-05-21T06:52:15.115Z,101590
2018-05-21T06:54:43.306Z,101586
2018-05-21T06:57:11.448Z,101582
2018-05-21T06:59:40.412Z,101589
2018-05-21T07:02:08.591Z,101584
2018-05-21T07:04:36.775Z,101580
2018-05-21T07:07:04.934Z,101578
2018-05-21T07:09:33.097Z,101581
2018-05-21T07:12:01.243Z,101579
2018-05-21T07:14:29.375Z,101578
2018-05-21T07:16:58.288Z,101575
2018-05-21T07:19:26.422Z,101571
2018-05-21T07:21:54.557Z,101568
2018-05-21T07:24:22.731Z,101567
2018-05-21T07:26:50.853Z,101558
2018-05-21T07:29:19.738Z,101564
2018-05-21T07:31:48.645Z,101555
2018-05-21T07:34:16.784Z,101559
2018-05-21T07:36:44.975Z,101558
2018-05-21T07:39:13.945Z,101552
2018-05-21T07:41:42.102Z,101545
2018-05-21T07:44:10.246Z,101556
2018-05-21T07:46:38.403Z,101543
2018-05-21T07:49:06.561Z,101548
2018-05-21T07:51:35.513Z,101547
2018-05-21T07:54:03.607Z,101538
2018-05-21T07:56:32.527Z,101534
2018-05-21T07:59:00.731Z,101537
2018-05-21T08:01:28.857Z,101539
2018-05-21T08:03:57.772Z,101533
2018-05-21T08:06:25.926Z,101529
2018-05-21T08:08:54.112Z,101533
2018-05-21T08:11:22.240Z,101529
2018-05-21T08:13:50.388Z,101523
2018-05-21T08:16:18.585Z,101526
2018-05-21T08:18:46.721Z,101524
2018-05-21T08:21:14.855Z,101524
2018-05-21T08:23:43.774Z,101515
2018-05-21T08:26:11.908Z,101519
2018-05-21T08:28:40.840Z,101512
2018-05-21T08:31:08.957Z,101499
2018-05-21T08:33:37.107Z,101497
2018-05-21T08:36:05.255Z,101498
2018-05-21T08:38:33.456Z,101507
2018-05-21T08:41:01.619Z,101493
2018-05-21T08:43:29.742Z,101492
2018-05-21T08:45:58.643Z,101485
2018-05-21T08:48:26.854Z,101496
2018-05-21T08:50:55.036Z,101500
2018-05-21T08:53:23.179Z,101489
2018-05-21T08:55:51.298Z,101490
2018-05-21T08:58:19.434Z,101492
2018-05-21T09:03:21.867Z,101478
2018-05-21T09:05:50.058Z,101463
2018-05-21T09:08:18.973Z,101464
2018-05-21T09:10:47.114Z,101456
2018-05-21T09:13:16.135Z,101465
2018-05-21T09:15:44.278Z,101453
2018-05-21T09:18:13.220Z,101458
2018-05-21T09:20:41.356Z,101454
2018-05-21T09:23:09.527Z,101450
2018-05-21T09:25:38.514Z,101444
2018-05-21T09:28:06.651Z,101436
2018-05-21T09:30:34.864Z,101442
2018-05-21T09:33:05.849Z,101428
2018-05-21T09:35:34.204Z,101436
2018-05-21T09:38:02.354Z,101428
2018-05-21T09:40:30.593Z,101425
2018-05-21T09:42:59.541Z,101430
2018-05-21T09:45:27.684Z,101419
2018-05-21T09:47:56.580Z,101432
2018-05-21T09:50:24.721Z,101413
2018-05-21T09:52:52.887Z,101412
2018-05-21T09:55:21.033Z,101423
2018-05-21T09:57:49.151Z,101414
2018-05-21T10:00:17.336Z,101407
2018-05-21T10:02:45.489Z,101406
2018-05-21T10:05:13.657Z,101411
2018-05-21T10:07:41.811Z,101397
2018-05-21T10:10:09.993Z,101397
2018-05-21T10:12:38.277Z,101398
2018-05-21T10:15:06.506Z,101385
2018-05-21T10:17:34.661Z,101383
2018-05-21T10:20:02.807Z,101380
2018-05-21T10:22:30.950Z,101364
2018-05-21T10:24:59.124Z,101368
2018-05-21T10:27:27.289Z,101367
2018-05-21T10:29:55.431Z,101366
2018-05-21T10:32:23.550Z,101356
2018-05-21T10:34:51.710Z,101351
2018-05-21T10:37:20.007Z,101349
2018-05-21T10:39:48.134Z,101355
2018-05-21T10:42:16.280Z,101348
2018-05-21T10:44:44.604Z,101358
2018-05-21T10:47:12.797Z,101344
2018-05-21T10:49:40.961Z,101340
2018-05-21T10:52:09.089Z,101336
2018-05-21T10:54:37.270Z,101337
2018-05-21T10:57:05.403Z,101328
2018-05-21T10:59:33.546Z,101326
2018-05-21T11:02:01.673Z,101320
2018-05-21T11:04:29.836Z,101324
2018-05-21T11:06:58.738Z,101325
2018-05-21T11:09:26.887Z,101322
2018-05-21T11:11:55.039Z,101314
2018-05-21T11:14:23.186Z,101309
2018-05-21T11:16:51.373Z,101305
2018-05-21T11:19:19.589Z,101305
2018-05-21T11:21:48.518Z,101297
2018-05-21T11:24:16.699Z,101286
2018-05-21T11:26:44.883Z,101287
2018-05-21T11:29:13.032Z,101276
2018-05-21T11:31:41.147Z,101275
2018-05-21T11:34:09.287Z,101276
2018-05-21T11:36:37.413Z,101282
2018-05-21T11:39:06.322Z,101286
2018-05-21T11:41:35.234Z,101283
2018-05-21T11:44:03.365Z,101262
2018-05-21T11:46:32.285Z,101277
2018-05-21T11:49:00.471Z,101251
2018-05-21T11:51:28.716Z,101257
2018-05-21T11:53:57.627Z,101251
2018-05-21T11:56:25.786Z,101253
2018-05-21T11:58:54.050Z,101236
2018-05-21T12:01:22.237Z,101244
2018-05-21T12:03:50.395Z,101235
2018-05-21T12:06:19.318Z,101233
2018-05-21T12:08:47.555Z,101224
2018-05-21T12:11:15.725Z,101226
2018-05-21T12:13:43.857Z,101225
2018-05-21T12:16:12.010Z,101218
2018-05-21T12:18:40.186Z,101208
2018-05-21T12:21:08.324Z,101220
2018-05-21T12:23:36.470Z,101214
2018-05-21T12:26:05.416Z,101208
2018-05-21T12:28:33.573Z,101206
2018-05-21T12:31:01.785Z,101204
2018-05-21T12:33:29.973Z,101209
2018-05-21T12:35:58.152Z,101197
2018-05-21T12:38:26.351Z,101185
2018-05-21T12:40:54.565Z,101186
2018-05-21T12:43:22.707Z,101197
2018-05-21T12:45:50.833Z,101181
2018-05-21T12:48:19.026Z,101178
2018-05-21T12:50:47.213Z,101170
2018-05-21T12:53:15.473Z,101169
2018-05-21T12:55:44.361Z,101157
2018-05-21T12:58:12.515Z,101159
2018-05-21T13:00:40.714Z,101162
2018-05-21T13:03:08.854Z,101164
2018-05-21T13:05:37.005Z,101165
2018-05-21T13:08:05.153Z,101150
2018-05-21T13:10:33.289Z,101147
2018-05-21T13:13:02.207Z,101156
2018-05-21T13:15:31.369Z,101160
2018-05-21T13:17:59.599Z,101150
2018-05-21T13:20:27.780Z,101144
2018-05-21T13:22:55.928Z,101154
2018-05-21T13:25:24.862Z,101151
2018-05-21T13:27:53.018Z,101147
2018-05-21T13:30:21.153Z,101141
2018-05-21T13:32:49.353Z,101132
2018-05-21T13:35:17.503Z,101126
2018-05-21T13:37:46.429Z,101115
2018-05-21T13:40:14.573Z,101124
2018-05-21T13:42:42.852Z,101121
2018-05-21T13:45:11.227Z,101119
2018-05-21T13:47:39.396Z,101111
2018-05-21T13:50:07.586Z,101106
2018-05-21T13:52:35.854Z,101096
2018-05-21T13:55:04.843Z,101099
2018-05-21T13:57:32.998Z,101103
2018-05-21T14:00:01.937Z,101091
2018-05-21T14:02:30.106Z,101086
2018-05-21T14:04:58.253Z,101092
2018-05-21T14:07:26.388Z,101091
2018-05-21T14:09:54.522Z,101084
2018-05-21T14:12:22.715Z,101086
2018-05-21T14:14:50.883Z,101087
2018-05-21T14:17:19.055Z,101078
2018-05-21T14:19:47.427Z,101075
2018-05-21T14:22:15.686Z,101084
2018-05-21T14:24:43.832Z,101065
2018-05-21T14:27:12.005Z,101068
2018-05-21T14:29:40.161Z,101075
2018-05-21T14:32:09.074Z,101072
2018-05-21T14:34:37.238Z,101064
2018-05-21T14:37:05.398Z,101063
2018-05-21T14:39:34.315Z,101052
2018-05-21T14:42:02.460Z,101062
2018-05-21T14:44:30.592Z,101053
2018-05-21T14:46:58.730Z,101042
2018-05-21T14:49:26.931Z,101063
2018-05-21T14:51:55.149Z,101048
2018-05-21T14:54:23.369Z,101044
2018-05-21T14:56:51.760Z,101042
2018-05-21T14:59:19.920Z,101025
2018-05-21T15:01:48.065Z,101030
2018-05-21T15:04:16.203Z,101026
2018-05-21T15:06:44.349Z,101021
2018-05-21T15:09:12.505Z,101015
2018-05-21T15:11:40.654Z,101015
2018-05-21T15:14:08.804Z,101017
2018-05-21T15:16:36.945Z,101011
2018-05-21T15:19:05.078Z,101011
2018-05-21T15:21:33.212Z,101010
2018-05-21T15:24:01.367Z,101005
2018-05-21T15:26:29.700Z,101006
2018-05-21T15:28:58.555Z,100999
2018-05-21T15:31:27.631Z,101004
2018-05-21T15:33:55.776Z,101002
2018-05-21T15:36:23.917Z,100999
2018-05-21T15:38:52.837Z,100999
2018-05-21T15:41:20.975Z,100986
2018-05-21T15:43:49.091Z,100989
2018-05-21T15:46:17.233Z,100983
2018-05-21T15:48:45.522Z,100985
2018-05-21T15:51:13.544Z,100980
2018-05-21T15:53:41.738Z,100985
2018-05-21T15:56:10.691Z,100982
2018-05-21T15:58:38.862Z,100974
2018-05-21T16:01:07.040Z,100983
2018-05-21T16:03:35.188Z,100979
2018-05-21T16:06:03.329Z,100967
2018-05-21T16:08:31.468Z,100977
2018-05-21T16:10:59.601Z,100972
2018-05-21T16:13:27.826Z,100967
2018-05-21T16:15:56.721Z,100963
2018-05-21T16:18:24.864Z,100964
2018-05-21T16:20:53.011Z,100962
2018-05-21T16:23:21.282Z,100952
2018-05-21T16:25:49.373Z,100954
2018-05-21T16:28:17.565Z,100957
2018-05-21T16:30:45.711Z,100951
2018-05-21T16:33:14.707Z,100955
2018-05-21T16:35:42.947Z,100954
2018-05-21T16:38:11.137Z,100952
2018-05-21T16:40:39.364Z,100950
2018-05-21T16:43:07.513Z,100950
2018-05-21T16:45:35.669Z,100951
2018-05-21T16:48:03.834Z,100948
2018-05-21T16:50:33.081Z,100954
2018-05-21T16:53:01.218Z,100956
2018-05-21T16:55:29.361Z,100950
2018-05-21T16:57:57.506Z,100946
2018-05-21T17:00:26.426Z,100954
2018-05-21T17:02:54.570Z,100946
2018-05-21T17:05:22.732Z,100945
2018-05-21T17:07:50.890Z,100939
2018-05-21T17:10:19.035Z,100932
2018-05-21T17:12:47.264Z,100946
2018-05-21T17:15:16.212Z,100948
2018-05-21T17:17:44.414Z,100942
2018-05-21T17:20:12.564Z,100940
2018-05-21T17:22:40.774Z,100938
2018-05-21T17:25:09.337Z,100941
2018-05-21T17:27:37.510Z,100939
2018-05-21T17:30:05.654Z,100941
2018-05-21T17:32:33.799Z,100941
2018-05-21T17:35:03.853Z,100938
2018-05-21T17:37:32.009Z,100934
2018-05-21T17:40:00.144Z,100941
2018-05-21T17:42:28.380Z,100939
2018-05-21T17:44:56.484Z,100944
2018-05-21T17:47:24.917Z,100940
2018-05-21T17:49:53.176Z,100947
2018-05-21T17:52:22.422Z,100949
2018-05-21T17:54:51.493Z,100940
2018-05-21T17:57:19.887Z,100939
2018-05-21T17:59:49.079Z,100928
2018-05-21T18:02:21.128Z,100939
2018-05-21T18:04:51.988Z,100941
2018-05-21T18:07:20.614Z,100933
2018-05-21T18:09:52.137Z,100941
2018-05-21T18:12:20.463Z,100945
2018-05-21T18:14:49.031Z,100943
2018-05-21T18:17:17.599Z,100945
2018-05-21T18:19:45.846Z,100937
2018-05-21T18:22:14.734Z,100937
2018-05-21T18:24:43.671Z,100938
2018-05-21T18:27:11.851Z,100938
2018-05-21T18:29:40.002Z,100932
2018-05-21T18:32:08.213Z,100927
2018-05-21T18:34:36.552Z,100938
2018-05-21T18:37:04.713Z,100934
2018-05-21T18:39:32.891Z,100934
2018-05-21T18:42:02.088Z,100931
2018-05-21T18:44:30.393Z,100924
2018-05-21T18:46:59.105Z,100925
2018-05-21T18:49:27.285Z,100925
2018-05-21T18:51:56.244Z,100927
2018-05-21T18:54:24.427Z,100930
2018-05-21T18:56:52.595Z,100929
2018-05-21T18:59:20.772Z,100929
2018-05-21T19:01:48.943Z,100939
2018-05-21T19:04:17.113Z,100940
2018-05-21T19:06:45.276Z,100940
2018-05-21T19:09:13.463Z,100944
2018-05-21T19:11:41.609Z,100935
2018-05-21T19:14:09.914Z,100944
2018-05-21T19:16:38.167Z,100944
2018-05-21T19:19:07.596Z,100943
2018-05-21T19:21:36.700Z,100945
2018-05-21T19:24:04.984Z,100948
2018-05-21T19:26:33.141Z,100950
2018-05-21T19:29:01.325Z,100947
2018-05-21T19:31:29.490Z,100949
2018-05-21T19:33:57.654Z,100947
2018-05-21T19:36:25.798Z,100944
2018-05-21T19:38:54.004Z,100943
2018-05-21T19:41:22.184Z,100945
2018-05-21T19:43:52.096Z,100957
2018-05-21T19:46:21.081Z,100954
2018-05-21T19:48:52.167Z,100953
2018-05-21T19:51:20.363Z,100955
2018-05-21T19:53:55.787Z,100961
2018-05-21T19:56:23.971Z,100965
2018-05-21T19:58:52.143Z,100965
2018-05-21T20:01:20.334Z,100963
2018-05-21T20:03:48.828Z,100965
2018-05-21T20:06:19.499Z,100971
2018-05-21T20:08:48.032Z,100966
2018-05-21T20:11:16.388Z,100964
2018-05-21T20:13:45.715Z,100968
2018-05-21T20:16:14.723Z,100957
2018-05-21T20:18:42.997Z,100960
2018-05-21T20:21:11.168Z,100964
2018-05-21T20:23:39.346Z,100963
2018-05-21T20:26:07.615Z,100964
2018-05-21T20:28:35.807Z,100969
2018-05-21T20:31:04.000Z,100968
2018-05-21T20:33:34.125Z,100966
2018-05-21T20:36:03.104Z,100969
2018-05-21T20:38:32.020Z,100966
2018-05-21T20:41:00.190Z,100962
2018-05-21T20:43:28.356Z,100967
2018-05-21T20:45:56.575Z,100971
2018-05-21T20:48:27.381Z,100971
2018-05-21T20:50:59.036Z,100967
2018-05-21T20:53:28.267Z,100970
2018-05-21T20:55:56.553Z,100966
2018-05-21T20:58:24.916Z,100969
2018-05-21T21:00:53.137Z,100964
2018-05-21T21:03:21.345Z,100962
2018-05-21T21:05:49.517Z,100959
2018-05-21T21:08:17.658Z,100957
2018-05-21T21:10:46.567Z,100959
2018-05-21T21:13:14.706Z,100949
2018-05-21T21:15:43.183Z,100919
2018-05-21T21:18:11.381Z,100955
2018-05-21T21:20:39.512Z,100962
2018-05-21T21:23:07.673Z,100970
2018-05-21T21:25:35.823Z,100964
2018-05-21T21:28:04.008Z,100960
2018-05-21T21:30:32.183Z,100962
2018-05-21T21:33:00.884Z,100955
2018-05-21T21:35:29.040Z,100954
2018-05-21T21:37:57.192Z,100957
2018-05-21T21:40:25.645Z,100955
2018-05-21T21:42:54.574Z,100958
2018-05-21T21:45:22.762Z,100957
2018-05-21T21:47:50.918Z,100950
2018-05-21T21:50:19.095Z,100954
2018-05-21T21:52:47.248Z,100948
2018-05-21T21:55:15.406Z,100955
2018-05-21T22:00:38.940Z,100951
2018-05-21T22:03:07.079Z,100943
2018-05-21T22:05:36.170Z,100948
2018-05-21T22:11:31.584Z,100944
2018-05-21T22:14:00.689Z,100949
2018-05-21T22:16:28.872Z,100942
2018-05-21T22:18:57.281Z,100946
2018-05-21T22:21:25.509Z,100934
2018-05-21T22:23:53.677Z,100933
2018-05-21T22:26:22.591Z,100934
2018-05-21T22:28:50.721Z,100934
2018-05-21T22:31:18.863Z,100933
2018-05-21T22:33:47.857Z,100926
2018-05-21T22:36:16.010Z,100921
2018-05-21T22:38:44.145Z,100924
2018-05-21T22:41:13.035Z,100925
2018-05-21T22:43:41.954Z,100922
2018-05-21T22:46:10.099Z,100928
2018-05-21T22:48:38.266Z,100932
2018-05-21T22:51:07.246Z,100919
2018-05-21T22:53:35.438Z,100921
2018-05-21T22:56:04.361Z,100922
2018-05-21T22:58:32.497Z,100914
2018-05-21T23:01:02.357Z,100921
2018-05-21T23:03:30.508Z,100915
2018-05-21T23:05:58.769Z,100911
2018-05-21T23:08:27.655Z,100914
2018-05-21T23:10:55.826Z,100921
2018-05-21T23:13:24.741Z,100910
2018-05-21T23:15:52.868Z,100902
2018-05-21T23:18:21.070Z,100905
2018-05-21T23:20:49.163Z,100898
2018-05-21T23:23:17.314Z,100901
2018-05-21T23:25:45.486Z,100901
2018-05-21T23:28:13.608Z,100897
2018-05-21T23:30:41.741Z,100895
2018-05-21T23:33:09.861Z,100896
2018-05-21T23:35:38.032Z,100889
2018-05-21T23:38:06.165Z,100889
2018-05-21T23:40:34.277Z,100886
2018-05-21T23:43:02.425Z,100887
2018-05-21T23:45:31.783Z,100887
2018-05-21T23:48:00.021Z,100882
2018-05-21T23:50:28.971Z,100884
2018-05-21T23:52:57.186Z,100887
2018-05-21T23:55:25.312Z,100871
2018-05-21T23:57:56.893Z,100874
